Boston, Massachusetts
Traffic Map
Current Weather Conditions
Boston, Massachusetts
Overcast Thunderstorm
Overcast
71°
Feels Like: 71°
Wind Chill: 71° Ceiling: 3100
Heat Index: 71° Visibility: 1.5mi
Dew Point: 68° Wind: 6mph
Humidity: 90% Direction: 60° (ENE)
Pressure: 29.8in Gusts: 0mph
Raw Report DataKBOS 172125Z 06005KT 1 1/2SM VCTS RA BR FEW008 BKN031CB OVC038 22/20 A2980 RMK AO2 LTG DSNT SW AND NW OCNL LTGICCC W TS W MOV NE VIS E 4 P0022 T02170200
Traffic Incident Summary
Active as of:
Severity:
Category:
InformationThere was an issue retrieving the traffic information for this location. Please try a different location or try again shortly.
Advertisements